Terminal Aerodrome Forecast
Issued by NWS

Home | Current Version | Previous Version | Text Only | Print | Product List | Glossary Off
Versions: 1 2 3 4 5 6 7 8 9 10 11 12 13 14 15 16 17 18 19

000
FTUS43 KOAX 292300 RRA
TAFCDR
TAF
KCDR 292343Z 3000/3024 05009KT P6SM VCSH OVC003
     FM300200 10012KT 3SM TSRA OVC005CB
      TEMPO 3002/3005 1SM +TSRA
     FM300800 26020G30KT 5SM -RA OVC005
     FM301500 27028G38KT P6SM BKN050=

USA.gov is the U.S. government's official web portal to all federal, state and local government web resources and services.